Edisto Beach, South Carolina
Current Conditions -  °F | °C
As of 2:35 AM on Wednesday 22 Oct 2014 (Local Time) from KJZI Reporting Station
Clear Clear  
Wind Chill: 63°   Ceiling: Unl
Heat Index: 63°   Visibility: 10mi
Dew Point: 52°   Wind: 10mph
Humidity: 68%   Direction: 360°N
Pressure: 29.93"   Gusts: NA
Location:  32.5623°N, 80.3136°W
Report Text: KJZI 220635Z AUTO 36009KT 10SM CLR 17/11 A2993 RMK A02 P000
Loading
Personal Weather Stations






























Interactive Weather Map
Tropical Storm Tracking
New forecast layout! Learn more

10-Day Weather Forecast

Advertisements
Track Severe Weather on mobile